Enter the Airport ICAO Code

Search by Airport or City

Current Weather

EIDW | Dublin Airport

Dublin, Ireland

Last Update 31 Minutes Ago

Light Rain

Temperature of 08 ºC

Moderate Winds from West with Gusts

Temperature

08 ºC

Dew Point Temperature

05 ºC

Relative Humidity

81.38 %

Wind Direction

West (250º, Ranging from 210º to 290º)

Wind Velocity

22 km/h (12 kt)

Gusts

41 km/h (22 kt)

Visibility

Greater than 10 Kilometers

Sea Level Pressure

0996 hPa (Hectopascals)

Layers of Clouds

5% to 30% of Sky Covered from 518 mts (1700 ft) Above Ground Level.

30% to 60% of Sky Covered from 1219 mts (4000 ft) Above Ground Level.

60% to 90% of Sky Covered from 3658 mts (12000 ft) Above Ground Level.

METAR EIDW 202200Z 25012G22KT 210V290 9999 -RA FEW017 SCT040 BKN120 08/05 Q0996 NOSIG

Weather Forecast

EIDW | Dublin Airport

Dublin, Ireland

Forecast valid for the next 19 Hours

In the next 2 hours it is expected the begining of:

Moderate to Strong Winds from NorthWest with Gusts

From now on it is expected 2 hours with intermittent periods of:

Light Rain

In 2 to 4 hours it is expected the begining of:

Moderate Winds from NorthWest with Gusts

In 4 to 6 hours it is expected the begining of:

Moderate Winds from NorthWest

Maximum Temperature

No Data

Minimum Temperature

No Data

TAF EIDW 201700Z 2018/2118 27009KT 9999 FEW025 BECMG 2020/2022 27014KT BECMG 2023/2101 33020G32KT PROB40 TEMPO 2023/2101 -RA BKN012 BECMG 2101/2103 31015G25KT BECMG 2103/2105 30012KT